Hudson, North Carolina
Current Conditions -  °F | °C
As of 5:15 PM on Saturday 25 Oct 2014 (Local Time) from KMRN Reporting Station
Scattered Clouds Scattered Clouds  
Wind Chill: 75°   Ceiling: Unl
Heat Index: 75°   Visibility: 10mi
Dew Point: 33°   Wind: 0mph
Humidity: 22%   Direction: NA
Pressure: 29.99"   Gusts: NA
Location:  35.85°N, 81.5°W
Report Text: KMRN 252115Z AUTO 00000KT 10SM SCT075 24/01 A2999 RMK AO2 T02370006
Loading
Personal Weather Stations






























Interactive Weather Map
Tropical Storm Tracking
New forecast layout! Learn more

10-Day Weather Forecast

Advertisements
Track Severe Weather on mobile